Blanton, Texas
Current Conditions -  °F | °C
As of 2:35 PM on Monday 22 Dec 2014 (Local Time) from KCOM Reporting Station
Clear Clear  
Wind Chill: 66°   Ceiling: Unl
Heat Index: 66°   Visibility: 10mi
Dew Point: 39°   Wind: 10mph
Humidity: 37%   Direction: 320°NW
Pressure: 29.66"   Gusts: NA
Location:  31.7639°N, 99.8991°W
Report Text: KCOM 222035Z AUTO 32009KT 10SM CLR 19/04 A2966 RMK AO2 T01880037
Loading
Personal Weather Stations






























Interactive Weather Map New forecast layout! Learn more

10-Day Weather Forecast

Advertisements
Track Severe Weather on mobile